Time;durP1;ratioP1;P1;durP2;ratioP2;P2;SDS_P1;SDS_P2;PMS_P1;PMS_P2;Temp;Humidity;BMP_temperature;BMP_pressure;BME280_temperature;BME280_humidity;BME280_pressure;Samples;Min_cycle;Max_cycle;Signal;HPM_P1;HPM_P2
2023/10/24 00:00:43;;;;;;;0.60;0.60;;;12.30;91.90;;;;;;6260289;22;20011;-78
2023/10/24 00:03:09;;;;;;;1.23;0.70;;;12.30;91.90;;;;;;6338397;22;20494;-79
2023/10/24 00:05:34;;;;;;;0.60;0.60;;;12.30;91.90;;;;;;6310711;22;20003;-78
2023/10/24 00:08:00;;;;;;;0.80;0.70;;;12.30;91.90;;;;;;6311547;22;20086;-78
2023/10/24 00:10:26;;;;;;;0.80;0.70;;;12.30;91.90;;;;;;6287075;22;20506;-77
2023/10/24 00:12:51;;;;;;;0.75;0.70;;;12.30;91.90;;;;;;6340983;22;20337;-78
2023/10/24 00:15:17;;;;;;;0.63;0.60;;;12.40;92.00;;;;;;6313446;22;20010;-77
2023/10/24 00:17:43;;;;;;;0.70;0.70;;;12.30;91.90;;;;;;6312945;22;20110;-78
2023/10/24 00:20:09;;;;;;;0.70;0.70;;;12.30;91.90;;;;;;6311139;22;20446;-78
2023/10/24 00:22:35;;;;;;;0.65;0.60;;;12.40;91.90;;;;;;6312469;22;20045;-78
2023/10/24 00:25:01;;;;;;;1.08;0.77;;;12.30;91.90;;;;;;6286849;22;19999;-78
2023/10/24 00:27:26;;;;;;;2.38;0.80;;;12.30;91.90;;;;;;6285181;22;20025;-78
2023/10/24 00:29:52;;;;;;;0.80;0.80;;;12.40;92.00;;;;;;6312769;22;20007;-78
2023/10/24 00:32:18;;;;;;;0.80;0.80;;;12.30;91.90;;;;;;6340624;22;20003;-78
2023/10/24 00:34:43;;;;;;;0.70;0.70;;;12.30;91.90;;;;;;6290806;22;20074;-77
2023/10/24 00:37:09;;;;;;;0.75;0.70;;;12.40;92.00;;;;;;6294413;22;20068;-78
2023/10/24 00:39:35;;;;;;;0.57;0.57;;;12.40;92.00;;;;;;6291990;22;20331;-78
2023/10/24 00:42:01;;;;;;;0.60;0.60;;;12.30;92.00;;;;;;6342855;22;20029;-77
2023/10/24 00:44:27;;;;;;;0.70;0.70;;;12.30;92.00;;;;;;6340126;22;20039;-78
2023/10/24 00:46:54;;;;;;;0.75;0.75;;;12.40;92.00;;;;;;6342406;22;20089;-78
2023/10/24 00:49:20;;;;;;;1.35;0.43;;;12.40;92.00;;;;;;6314753;22;20017;-77
2023/10/24 00:51:46;;;;;;;0.65;0.65;;;12.30;91.90;;;;;;6286760;22;20442;-77
2023/10/24 00:54:12;;;;;;;0.63;0.63;;;12.40;92.00;;;;;;6286915;22;20028;-77
2023/10/24 00:56:39;;;;;;;0.90;0.80;;;12.40;92.00;;;;;;6287045;22;20006;-77
2023/10/24 00:59:06;;;;;;;0.95;0.80;;;12.40;92.00;;;;;;6285432;22;20010;-77
2023/10/24 01:01:32;;;;;;;0.70;0.70;;;12.40;92.00;;;;;;6286045;22;20026;-77
2023/10/24 01:03:59;;;;;;;1.08;0.90;;;12.40;92.00;;;;;;6262557;22;20038;-78
2023/10/24 01:06:25;;;;;;;1.05;0.70;;;12.40;92.00;;;;;;6289344;22;20003;-77
2023/10/24 01:08:50;;;;;;;0.70;0.70;;;12.40;92.00;;;;;;6287412;22;20010;-77
2023/10/24 01:11:16;;;;;;;0.70;0.70;;;12.40;92.00;;;;;;6312549;22;20042;-78
2023/10/24 01:13:42;;;;;;;0.80;0.80;;;12.40;92.00;;;;;;6313219;22;20006;-77
2023/10/24 01:16:08;;;;;;;1.10;1.00;;;12.40;92.10;;;;;;6340288;22;20018;-77
2023/10/24 01:18:34;;;;;;;1.25;0.90;;;12.40;92.10;;;;;;6312723;22;20010;-77
2023/10/24 01:20:59;;;;;;;0.70;0.70;;;12.40;92.00;;;;;;6285740;22;20007;-77
2023/10/24 01:23:28;;;;;;;1.45;1.00;;;12.40;92.10;;;;;;6287271;22;20013;-77
2023/10/24 01:25:57;;;;;;;1.58;1.10;;;12.40;92.10;;;;;;6287986;22;19998;-76
2023/10/24 01:28:24;;;;;;;1.63;1.33;;;12.50;92.10;;;;;;6319267;22;20018;-78
2023/10/24 01:30:50;;;;;;;0.90;0.90;;;12.40;92.10;;;;;;6313663;22;20018;-77
2023/10/24 01:33:16;;;;;;;2.40;1.30;;;12.50;92.10;;;;;;6286885;22;20011;-77
2023/10/24 01:35:41;;;;;;;1.27;0.98;;;12.40;92.00;;;;;;6286052;22;20438;-76
2023/10/24 01:38:07;;;;;;;1.20;0.93;;;12.40;92.00;;;;;;6311823;22;20013;-77
2023/10/24 01:40:33;;;;;;;1.30;1.02;;;12.50;92.00;;;;;;6284819;22;20339;-77
2023/10/24 01:42:59;;;;;;;1.40;1.20;;;12.50;92.00;;;;;;6311185;22;20017;-77
2023/10/24 01:45:24;;;;;;;1.27;1.15;;;12.50;92.00;;;;;;6311570;22;20013;-78
2023/10/24 01:47:50;;;;;;;2.65;1.40;;;12.50;92.00;;;;;;6284860;22;20018;-77
2023/10/24 01:50:16;;;;;;;1.20;1.10;;;12.50;92.00;;;;;;6339138;22;20288;-77
2023/10/24 01:52:42;;;;;;;1.15;1.05;;;12.40;92.00;;;;;;6311025;22;20015;-77
2023/10/24 01:55:07;;;;;;;3.97;1.30;;;12.50;92.00;;;;;;6310389;22;20011;-77
2023/10/24 01:57:33;;;;;;;1.65;1.05;;;12.50;92.00;;;;;;6284360;22;20015;-77
2023/10/24 01:59:59;;;;;;;2.30;1.38;;;12.50;92.00;;;;;;6338194;22;20007;-77
2023/10/24 02:02:26;;;;;;;1.70;1.30;;;12.50;92.00;;;;;;6310924;22;20101;-78
2023/10/24 02:04:52;;;;;;;1.63;1.10;;;12.40;92.00;;;;;;6259778;22;20003;-77
2023/10/24 02:07:19;;;;;;;2.20;1.30;;;12.50;92.00;;;;;;6311501;22;20013;-78
2023/10/24 02:09:45;;;;;;;1.35;1.10;;;12.50;92.00;;;;;;6277203;22;20037;-77
2023/10/24 02:12:11;;;;;;;1.17;0.95;;;12.40;92.00;;;;;;6259191;22;20011;-77
2023/10/24 02:14:37;;;;;;;1.02;0.80;;;12.40;92.00;;;;;;6340025;22;20093;-77
2023/10/24 02:17:03;;;;;;;1.08;0.80;;;12.40;92.00;;;;;;6309906;22;20014;-77
2023/10/24 02:19:30;;;;;;;1.27;1.00;;;12.40;92.00;;;;;;6285042;22;20009;-76
2023/10/24 02:21:55;;;;;;;1.10;0.77;;;12.40;92.00;;;;;;6258834;22;20010;-77
2023/10/24 02:24:21;;;;;;;1.45;1.00;;;12.40;92.00;;;;;;6337653;22;20003;-77
2023/10/24 02:26:48;;;;;;;1.27;0.88;;;12.40;92.00;;;;;;6310182;22;20377;-76
2023/10/24 02:29:14;;;;;;;1.45;0.80;;;12.40;92.00;;;;;;6337970;22;20413;-77
2023/10/24 02:31:40;;;;;;;0.85;0.85;;;12.40;92.00;;;;;;6310421;22;20804;-76
2023/10/24 02:34:05;;;;;;;1.48;1.00;;;12.40;92.00;;;;;;6284123;22;20003;-78
2023/10/24 02:36:32;;;;;;;1.20;0.82;;;12.40;92.00;;;;;;6310370;22;20003;-77
2023/10/24 02:38:58;;;;;;;1.80;1.15;;;12.40;92.00;;;;;;6337574;22;20013;-77
2023/10/24 02:41:24;;;;;;;1.20;0.88;;;12.40;91.90;;;;;;6283993;22;20357;-77
2023/10/24 02:43:49;;;;;;;1.10;0.80;;;12.40;91.90;;;;;;6309797;22;20010;-78
2023/10/24 02:46:15;;;;;;;1.35;0.88;;;12.40;91.90;;;;;;6284566;22;20008;-77
2023/10/24 02:48:41;;;;;;;1.88;0.90;;;12.40;91.90;;;;;;6310025;22;20003;-77
2023/10/24 02:51:06;;;;;;;0.77;0.77;;;12.40;91.90;;;;;;6309782;22;20017;-77
2023/10/24 02:53:32;;;;;;;0.98;0.75;;;12.30;91.90;;;;;;6283751;22;20453;-78
2023/10/24 02:56:02;;;;;;;2.50;0.98;;;12.30;91.90;;;;;;6310165;22;20015;-78
2023/10/24 02:58:28;;;;;;;0.70;0.70;;;12.50;91.90;;;;;;6309508;22;20025;-79
2023/10/24 03:00:54;;;;;;;0.82;0.70;;;12.40;91.90;;;;;;6283805;22;20034;-77
2023/10/24 03:03:20;;;;;;;0.70;0.70;;;12.40;91.90;;;;;;6309815;22;20032;-78
2023/10/24 03:05:46;;;;;;;1.35;0.90;;;12.40;91.90;;;;;;6309486;22;20439;-77
2023/10/24 03:08:12;;;;;;;1.40;1.10;;;12.30;91.90;;;;;;6309518;22;20003;-76
2023/10/24 03:10:40;;;;;;;1.73;1.05;;;12.40;91.90;;;;;;6309648;22;20018;-76
2023/10/24 03:13:06;;;;;;;1.20;1.08;;;12.30;91.90;;;;;;6309560;22;20339;-77
2023/10/24 03:15:34;;;;;;;1.17;1.08;;;12.40;91.90;;;;;;6309786;22;20011;-77
2023/10/24 03:18:00;;;;;;;1.50;1.10;;;12.30;91.80;;;;;;6258491;22;20119;-76
2023/10/24 03:20:26;;;;;;;2.97;1.60;;;12.30;91.80;;;;;;6309425;22;20089;-77
2023/10/24 03:22:52;;;;;;;1.60;1.20;;;12.30;91.80;;;;;;6310672;22;20036;-78
2023/10/24 03:25:18;;;;;;;1.50;1.20;;;12.30;91.80;;;;;;6284867;22;20427;-77
2023/10/24 03:27:44;;;;;;;1.70;1.20;;;12.30;91.80;;;;;;6311788;22;20034;-77
2023/10/24 03:30:10;;;;;;;1.55;1.30;;;12.40;91.80;;;;;;6285107;22;20100;-77
2023/10/24 03:32:35;;;;;;;1.15;1.00;;;12.30;91.80;;;;;;6259685;22;20437;-77
2023/10/24 03:35:01;;;;;;;1.33;1.17;;;12.30;91.80;;;;;;6284863;22;20072;-76
2023/10/24 03:37:27;;;;;;;2.00;1.42;;;12.30;91.80;;;;;;6285215;22;20053;-76
2023/10/24 03:39:53;;;;;;;3.00;1.48;;;12.30;91.80;;;;;;6259728;22;20006;-77
2023/10/24 03:42:19;;;;;;;1.75;1.20;;;12.30;91.80;;;;;;6339235;22;20006;-76
2023/10/24 03:44:45;;;;;;;1.50;1.13;;;12.30;91.80;;;;;;6338979;22;20060;-76
2023/10/24 03:47:11;;;;;;;2.92;1.48;;;12.30;91.80;;;;;;6338876;22;20497;-76
2023/10/24 03:49:36;;;;;;;1.25;1.10;;;12.30;91.80;;;;;;6284587;22;20044;-76
2023/10/24 03:52:02;;;;;;;1.85;1.08;;;12.30;91.80;;;;;;6339089;22;20035;-77
2023/10/24 03:54:29;;;;;;;1.35;1.05;;;12.30;91.80;;;;;;6283250;22;20015;-76
2023/10/24 03:56:55;;;;;;;1.17;1.08;;;12.20;91.80;;;;;;6283169;22;20338;-77
2023/10/24 03:59:21;;;;;;;0.93;0.80;;;12.20;91.80;;;;;;6310982;22;20006;-76
2023/10/24 04:01:47;;;;;;;1.42;0.88;;;12.20;91.80;;;;;;6338473;22;20507;-76
2023/10/24 04:04:12;;;;;;;0.70;0.70;;;12.20;91.80;;;;;;6312727;22;20006;-76
2023/10/24 04:06:38;;;;;;;0.90;0.73;;;12.20;91.80;;;;;;6264501;22;20026;-76
2023/10/24 04:09:04;;;;;;;1.48;0.90;;;12.20;91.80;;;;;;6263136;22;20006;-76
2023/10/24 04:11:32;;;;;;;0.93;0.80;;;12.20;91.80;;;;;;6340808;22;20430;-77
2023/10/24 04:13:58;;;;;;;1.20;0.82;;;12.10;91.80;;;;;;6277297;22;20320;-76
2023/10/24 04:16:24;;;;;;;1.10;0.68;;;12.30;91.80;;;;;;6311552;22;20017;-76
2023/10/24 04:18:50;;;;;;;1.40;1.00;;;12.20;91.80;;;;;;6310816;22;20457;-76
2023/10/24 04:21:16;;;;;;;0.70;0.70;;;12.10;91.80;;;;;;6284896;22;20011;-76
2023/10/24 04:23:42;;;;;;;1.60;1.00;;;12.10;91.80;;;;;;6335099;22;20007;-77
2023/10/24 04:26:09;;;;;;;1.08;0.88;;;12.10;91.80;;;;;;6338851;22;20006;-76
2023/10/24 04:28:39;;;;;;;1.50;0.90;;;12.10;91.80;;;;;;6311037;22;20014;-76
2023/10/24 04:31:04;;;;;;;0.90;0.70;;;12.10;91.80;;;;;;6338544;22;20014;-76
2023/10/24 04:33:30;;;;;;;0.98;0.85;;;12.10;91.80;;;;;;6284584;22;20014;-76
2023/10/24 04:35:56;;;;;;;1.40;1.00;;;12.20;91.80;;;;;;6284816;22;20015;-75
2023/10/24 04:38:22;;;;;;;1.15;0.98;;;12.10;91.80;;;;;;6310693;22;20018;-76
2023/10/24 04:40:51;;;;;;;1.42;0.90;;;12.10;91.80;;;;;;6284456;22;20007;-76
2023/10/24 04:43:17;;;;;;;0.80;0.80;;;12.10;91.80;;;;;;6311675;22;20099;-76
2023/10/24 04:45:43;;;;;;;0.98;0.90;;;12.00;91.70;;;;;;6285436;22;20011;-76
2023/10/24 04:48:09;;;;;;;0.85;0.82;;;12.00;91.70;;;;;;6284892;22;20086;-77
2023/10/24 04:50:38;;;;;;;1.23;0.90;;;12.00;91.70;;;;;;6284662;22;20080;-76
2023/10/24 04:53:05;;;;;;;1.13;0.82;;;12.00;91.70;;;;;;6285169;22;20038;-76
2023/10/24 04:55:31;;;;;;;2.63;1.10;;;12.00;91.70;;;;;;6259327;22;20507;-76
2023/10/24 04:57:57;;;;;;;1.13;1.02;;;12.00;91.70;;;;;;6338243;22;20018;-76
2023/10/24 05:00:24;;;;;;;1.15;0.98;;;12.00;91.70;;;;;;6284727;22;20014;-76
2023/10/24 05:05:37;;;;;;;1.45;1.00;;;11.90;91.60;;;;;;6293433;22;20021;-75
2023/10/24 05:08:07;;;;;;;2.13;1.13;;;12.00;91.70;;;;;;6285319;22;20011;-76
2023/10/24 05:10:33;;;;;;;1.30;1.10;;;12.00;91.70;;;;;;6310991;22;20017;-77
2023/10/24 05:13:00;;;;;;;1.50;1.00;;;12.00;91.70;;;;;;6258946;22;20081;-77
2023/10/24 05:15:26;;;;;;;2.00;1.27;;;12.00;91.70;;;;;;6288075;22;20015;-80
2023/10/24 05:17:52;;;;;;;1.70;1.10;;;11.90;91.60;;;;;;6284610;22;20447;-83
2023/10/24 05:20:18;;;;;;;0.82;0.82;;;11.90;91.60;;;;;;6298187;22;20022;-79
2023/10/24 05:22:43;;;;;;;1.77;1.35;;;11.90;91.60;;;;;;6344460;22;20014;-77
2023/10/24 05:25:09;;;;;;;1.38;1.10;;;11.90;91.60;;;;;;6345369;22;20008;-79
